createdAt,value
2019-03-21T00:02:22.969Z,0.50
2019-03-21T00:04:50.433Z,0.48
2019-03-21T00:07:17.775Z,0.44
2019-03-21T00:09:45.889Z,0.41
2019-03-21T00:12:13.217Z,0.38
2019-03-21T00:14:40.554Z,0.43
2019-03-21T00:17:07.602Z,0.45
2019-03-21T00:19:34.651Z,0.40
2019-03-21T00:22:01.681Z,0.35
2019-03-21T00:24:28.807Z,0.33
2019-03-21T00:26:55.842Z,0.30
2019-03-21T00:29:23.269Z,0.30
2019-03-21T00:31:50.305Z,0.32
2019-03-21T00:34:17.656Z,0.35
2019-03-21T00:36:45.024Z,0.38
2019-03-21T00:39:12.078Z,0.42
2019-03-21T00:41:39.414Z,0.46
2019-03-21T00:44:17.597Z,0.47
2019-03-21T00:46:35.862Z,0.45
2019-03-21T00:49:02.895Z,0.44
2019-03-21T00:51:30.183Z,0.44
2019-03-21T00:53:57.539Z,0.44
2019-03-21T00:56:24.603Z,0.43
2019-03-21T00:58:52.600Z,0.41
2019-03-21T01:01:20.023Z,0.37
2019-03-21T01:03:47.030Z,0.32
2019-03-21T01:06:14.137Z,0.26
2019-03-21T01:08:41.445Z,0.19
2019-03-21T01:11:08.845Z,0.16
2019-03-21T01:13:36.152Z,0.07
2019-03-21T01:16:03.209Z,-0.08
2019-03-21T01:18:30.248Z,-0.23
2019-03-21T01:20:57.643Z,-0.28
2019-03-21T01:23:24.713Z,-0.30
2019-03-21T01:25:51.762Z,-0.27
2019-03-21T01:28:19.166Z,-0.22
2019-03-21T01:30:46.515Z,-0.16
2019-03-21T01:33:13.885Z,-0.11
2019-03-21T01:35:41.230Z,-0.05
2019-03-21T01:38:08.261Z,0.03
2019-03-21T01:40:35.835Z,0.10
2019-03-21T01:43:03.187Z,0.10
2019-03-21T01:45:40.505Z,0.06
2019-03-21T01:48:07.552Z,0.00
2019-03-21T01:50:34.592Z,-0.05
2019-03-21T01:53:01.650Z,-0.08
2019-03-21T01:55:28.699Z,-0.07
2019-03-21T01:57:56.022Z,-0.06
2019-03-21T02:00:23.380Z,-0.09
2019-03-21T02:02:50.503Z,-0.10
2019-03-21T02:05:17.621Z,-0.10
2019-03-21T02:07:45.055Z,-0.09
2019-03-21T02:10:12.392Z,-0.12
2019-03-21T02:12:39.696Z,-0.17
2019-03-21T02:15:07.013Z,-0.24
2019-03-21T02:17:34.364Z,-0.30
2019-03-21T02:20:01.709Z,-0.32
2019-03-21T02:22:29.186Z,-0.31
2019-03-21T02:24:56.228Z,-0.27
2019-03-21T02:27:23.566Z,-0.17
2019-03-21T02:29:50.603Z,-0.11
2019-03-21T02:32:17.660Z,-0.10
2019-03-21T02:34:45.020Z,-0.10
2019-03-21T02:37:12.078Z,-0.11
2019-03-21T02:39:39.424Z,-0.09
2019-03-21T02:42:06.487Z,-0.10
2019-03-21T02:44:33.582Z,-0.13
2019-03-21T02:47:00.655Z,-0.20
2019-03-21T02:49:27.688Z,-0.26
2019-03-21T02:51:54.751Z,-0.35
2019-03-21T02:54:21.807Z,-0.42
2019-03-21T02:56:49.199Z,-0.47
2019-03-21T02:59:16.232Z,-0.54
2019-03-21T03:01:43.286Z,-0.54
2019-03-21T03:04:10.402Z,-0.54
2019-03-21T03:06:37.446Z,-0.53
2019-03-21T03:09:04.817Z,-0.55
2019-03-21T03:11:32.029Z,-0.55
2019-03-21T03:13:59.429Z,-0.55
2019-03-21T03:16:26.713Z,-0.53
2019-03-21T03:18:54.033Z,-0.53
2019-03-21T03:21:21.079Z,-0.50
2019-03-21T03:23:48.133Z,-0.53
2019-03-21T03:26:15.172Z,-0.54
2019-03-21T03:28:42.481Z,-0.56
2019-03-21T03:31:09.522Z,-0.64
2019-03-21T03:33:36.574Z,-0.70
2019-03-21T03:36:04.089Z,-0.74
2019-03-21T03:38:31.152Z,-0.77
2019-03-21T03:40:58.196Z,-0.79
2019-03-21T03:43:25.539Z,-0.82
2019-03-21T03:45:52.588Z,-0.86
2019-03-21T03:48:20.815Z,-0.92
2019-03-21T03:50:48.066Z,-1.00
2019-03-21T03:53:15.471Z,-1.00
2019-03-21T03:55:42.824Z,-1.02
2019-03-21T03:58:10.188Z,-1.02
2019-03-21T04:00:37.541Z,-1.02
2019-03-21T04:03:05.812Z,-1.03
2019-03-21T04:05:33.170Z,-1.05
2019-03-21T04:08:00.215Z,-1.05
2019-03-21T04:10:27.338Z,-1.07
2019-03-21T04:12:54.390Z,-1.11
2019-03-21T04:15:21.767Z,-1.14
2019-03-21T04:17:48.820Z,-1.13
2019-03-21T04:20:16.111Z,-1.14
2019-03-21T04:22:43.168Z,-1.15
2019-03-21T04:25:10.473Z,-1.13
2019-03-21T04:27:37.508Z,-1.13
2019-03-21T04:30:04.899Z,-1.15
2019-03-21T04:32:31.939Z,-1.12
2019-03-21T04:34:59.273Z,-1.12
2019-03-21T04:37:26.634Z,-1.08
2019-03-21T04:39:53.684Z,-1.04
2019-03-21T04:42:20.722Z,-1.04
2019-03-21T04:44:48.085Z,-1.07
2019-03-21T04:47:15.446Z,-1.11
2019-03-21T04:49:42.790Z,-1.14
2019-03-21T04:52:10.147Z,-1.17
2019-03-21T04:54:37.253Z,-1.18
2019-03-21T04:57:04.554Z,-1.23
2019-03-21T04:59:31.602Z,-1.22
2019-03-21T05:01:58.648Z,-1.20
2019-03-21T05:04:25.715Z,-1.19
2019-03-21T05:06:53.054Z,-1.19
2019-03-21T05:11:59.743Z,-1.18
2019-03-21T05:14:27.203Z,-1.14
2019-03-21T05:16:54.244Z,-1.11
2019-03-21T05:19:21.298Z,-1.04
2019-03-21T05:21:48.650Z,-1.04
2019-03-21T05:24:15.712Z,-1.00
2019-03-21T05:26:42.890Z,-0.90
2019-03-21T05:29:10.321Z,-0.79
2019-03-21T05:31:37.369Z,-0.64
2019-03-21T05:34:04.705Z,-0.55
2019-03-21T05:36:33.015Z,-0.45
2019-03-21T05:39:00.067Z,-0.22
2019-03-21T05:41:27.107Z,0.27
2019-03-21T05:43:54.156Z,1.03
2019-03-21T05:46:26.439Z,1.76
2019-03-21T05:48:51.333Z,2.51
2019-03-21T05:51:18.371Z,3.19
2019-03-21T05:53:45.425Z,3.92
2019-03-21T05:56:12.464Z,4.61
2019-03-21T05:58:39.518Z,5.14
2019-03-21T06:01:06.550Z,5.31
2019-03-21T06:03:33.894Z,5.56
2019-03-21T06:06:00.944Z,6.12
2019-03-21T06:08:28.293Z,6.65
2019-03-21T06:10:55.344Z,7.32
2019-03-21T06:13:22.697Z,7.67
2019-03-21T06:15:50.052Z,7.91
2019-03-21T06:18:17.409Z,7.98
2019-03-21T06:20:44.470Z,8.22
2019-03-21T06:23:11.506Z,8.43
2019-03-21T06:25:38.815Z,8.33
2019-03-21T06:28:05.848Z,8.52
2019-03-21T06:30:32.900Z,8.78
2019-03-21T06:32:59.939Z,8.95
2019-03-21T06:35:27.358Z,9.08
2019-03-21T06:37:54.405Z,9.29
2019-03-21T06:40:21.457Z,9.32
2019-03-21T06:42:48.495Z,9.33
2019-03-21T06:45:15.544Z,9.29
2019-03-21T06:47:42.580Z,9.54
2019-03-21T06:50:09.950Z,9.93
2019-03-21T06:52:37.253Z,10.21
2019-03-21T06:55:04.670Z,10.52
2019-03-21T06:57:32.014Z,10.83
2019-03-21T06:59:59.375Z,11.10
2019-03-21T07:02:26.423Z,11.49
2019-03-21T07:04:53.773Z,11.87
2019-03-21T07:07:20.812Z,12.15
2019-03-21T07:09:47.851Z,12.07
2019-03-21T07:12:14.899Z,12.35
2019-03-21T07:14:42.294Z,12.65
2019-03-21T07:17:09.625Z,12.87
2019-03-21T07:19:37.887Z,12.90
2019-03-21T07:22:04.941Z,13.19
2019-03-21T07:24:31.982Z,13.04
2019-03-21T07:26:59.035Z,12.72
2019-03-21T07:29:26.402Z,12.47
2019-03-21T07:31:53.454Z,12.72
2019-03-21T07:34:20.508Z,12.38
2019-03-21T07:36:47.855Z,12.36
2019-03-21T07:39:15.212Z,13.25
2019-03-21T07:41:42.268Z,13.32
2019-03-21T07:44:09.308Z,12.89
2019-03-21T07:46:36.365Z,12.70
2019-03-21T07:49:03.476Z,12.74
2019-03-21T07:51:30.539Z,13.11
2019-03-21T07:53:57.577Z,13.25
2019-03-21T07:56:25.089Z,13.12
2019-03-21T07:58:52.162Z,13.05
2019-03-21T08:01:19.223Z,13.36
2019-03-21T08:03:46.512Z,13.19
2019-03-21T08:06:13.883Z,13.19
2019-03-21T08:08:41.225Z,13.24
2019-03-21T08:11:08.575Z,13.03
2019-03-21T08:13:35.620Z,13.22
2019-03-21T08:16:02.975Z,12.74
2019-03-21T08:18:30.333Z,12.29
2019-03-21T08:21:00.005Z,12.45
2019-03-21T08:23:26.476Z,12.39
2019-03-21T08:25:53.531Z,12.37
2019-03-21T08:28:20.577Z,12.41
2019-03-21T08:30:47.617Z,12.25
2019-03-21T08:33:14.672Z,12.64
2019-03-21T08:35:41.719Z,12.87
2019-03-21T08:38:08.772Z,12.99
2019-03-21T08:40:35.816Z,12.97
2019-03-21T08:43:03.174Z,12.86
2019-03-21T08:45:31.546Z,12.66
2019-03-21T08:47:58.919Z,12.53
2019-03-21T08:50:26.260Z,12.66
2019-03-21T08:52:53.319Z,12.99
2019-03-21T08:55:20.367Z,13.06
2019-03-21T08:57:47.424Z,12.41
2019-03-21T09:00:14.464Z,12.01
2019-03-21T09:02:41.523Z,12.18
2019-03-21T09:05:08.562Z,12.01
2019-03-21T09:07:35.917Z,12.14
2019-03-21T09:10:02.957Z,12.54
2019-03-21T09:12:30.506Z,13.25
2019-03-21T09:14:57.553Z,13.50
2019-03-21T09:17:24.603Z,13.63
2019-03-21T09:19:51.649Z,13.76
2019-03-21T09:22:19.007Z,13.94
2019-03-21T09:24:46.050Z,13.87
2019-03-21T09:27:13.101Z,14.08
2019-03-21T09:29:40.148Z,14.06
2019-03-21T09:32:07.233Z,14.37
2019-03-21T09:34:34.258Z,14.47
2019-03-21T09:37:03.887Z,14.86
2019-03-21T09:39:31.314Z,14.50
2019-03-21T09:41:58.355Z,14.03
2019-03-21T09:44:25.415Z,14.03
2019-03-21T09:46:52.451Z,13.37
2019-03-21T09:49:19.503Z,13.83
2019-03-21T09:51:46.790Z,13.42
2019-03-21T09:54:14.112Z,13.78
2019-03-21T09:56:41.477Z,13.67
2019-03-21T09:59:08.822Z,13.94
2019-03-21T10:01:35.864Z,14.00
2019-03-21T10:04:03.223Z,14.14
2019-03-21T10:06:30.258Z,14.39
2019-03-21T10:08:57.630Z,14.08
2019-03-21T10:11:24.982Z,13.62
2019-03-21T10:13:52.035Z,13.24
2019-03-21T10:16:19.147Z,13.63
2019-03-21T10:18:46.535Z,13.59
2019-03-21T10:21:13.579Z,13.58
2019-03-21T10:23:40.630Z,13.17
2019-03-21T10:26:07.677Z,12.81
2019-03-21T10:28:35.034Z,13.03
2019-03-21T10:31:02.074Z,13.45
2019-03-21T10:33:29.128Z,13.67
2019-03-21T10:35:56.172Z,13.47
2019-03-21T10:38:23.531Z,13.41
2019-03-21T10:40:50.577Z,12.93
2019-03-21T10:43:17.631Z,13.54
2019-03-21T10:45:44.998Z,13.61
2019-03-21T10:48:12.041Z,13.73
2019-03-21T10:50:39.082Z,13.97
2019-03-21T10:53:07.203Z,14.08
2019-03-21T10:55:34.246Z,14.35
2019-03-21T10:58:01.284Z,14.76
2019-03-21T11:00:28.342Z,14.73
2019-03-21T11:02:55.379Z,14.90
2019-03-21T11:05:23.354Z,15.14
2019-03-21T11:07:50.870Z,14.64
2019-03-21T11:10:17.924Z,15.02
2019-03-21T11:12:46.302Z,14.80
2019-03-21T11:15:13.358Z,14.79
2019-03-21T11:17:40.398Z,14.53
2019-03-21T11:20:07.452Z,15.10
2019-03-21T11:22:34.492Z,15.36
2019-03-21T11:25:01.847Z,15.40
2019-03-21T11:27:28.884Z,15.75
2019-03-21T11:29:55.938Z,15.46
2019-03-21T11:32:22.973Z,15.67
2019-03-21T11:34:50.040Z,15.92
2019-03-21T11:37:17.396Z,16.21
2019-03-21T11:39:44.750Z,16.75
2019-03-21T11:42:11.790Z,17.47
2019-03-21T11:44:38.850Z,17.25
2019-03-21T11:47:05.897Z,17.52
2019-03-21T11:49:32.997Z,18.15
2019-03-21T11:51:59.986Z,18.19
2019-03-21T11:54:27.342Z,18.65
2019-03-21T11:56:54.630Z,19.09
2019-03-21T11:59:21.688Z,18.84
2019-03-21T12:01:48.729Z,18.35
2019-03-21T12:04:15.783Z,18.12
2019-03-21T12:06:42.820Z,17.54
2019-03-21T12:09:09.859Z,17.62
2019-03-21T12:11:36.910Z,17.70
2019-03-21T12:14:04.240Z,17.79
2019-03-21T12:16:31.609Z,18.39
2019-03-21T12:18:58.646Z,18.41
2019-03-21T12:21:25.718Z,18.16
2019-03-21T12:23:52.759Z,18.81
2019-03-21T12:26:19.815Z,18.46
2019-03-21T12:28:46.861Z,18.79
2019-03-21T12:31:13.914Z,19.09
2019-03-21T12:33:40.960Z,19.39
2019-03-21T12:36:08.288Z,19.52
2019-03-21T12:38:35.394Z,18.96
2019-03-21T12:41:02.793Z,18.96
2019-03-21T12:43:30.094Z,18.91
2019-03-21T12:45:57.150Z,18.40
2019-03-21T12:48:24.548Z,18.02
2019-03-21T12:50:51.599Z,18.19
2019-03-21T12:53:18.645Z,18.14
2019-03-21T12:55:45.998Z,18.27
2019-03-21T12:58:13.035Z,18.65
2019-03-21T13:00:41.067Z,18.31
2019-03-21T13:03:08.102Z,18.43
2019-03-21T13:05:35.425Z,17.99
2019-03-21T13:08:02.464Z,18.39
2019-03-21T13:10:29.536Z,18.39
2019-03-21T13:12:56.578Z,18.71
2019-03-21T13:15:29.860Z,18.83
2019-03-21T13:17:52.654Z,18.79
2019-03-21T13:20:19.718Z,18.63
2019-03-21T13:22:52.768Z,18.42
2019-03-21T13:25:15.507Z,17.42
2019-03-21T13:27:42.551Z,16.67
2019-03-21T13:30:09.891Z,16.10
2019-03-21T13:32:36.935Z,15.13
2019-03-21T13:35:06.203Z,14.94
2019-03-21T13:37:32.727Z,14.46
2019-03-21T13:39:59.762Z,14.06
2019-03-21T13:42:27.079Z,13.93
2019-03-21T13:44:54.430Z,13.83
2019-03-21T13:47:21.787Z,13.75
2019-03-21T13:49:48.833Z,13.64
2019-03-21T13:52:16.210Z,13.55
2019-03-21T13:54:43.546Z,13.44
2019-03-21T13:57:10.898Z,13.28
2019-03-21T13:59:38.259Z,13.16
2019-03-21T14:02:05.321Z,13.24
2019-03-21T14:04:32.659Z,13.27
2019-03-21T14:07:00.014Z,13.39
2019-03-21T14:09:27.367Z,13.44
2019-03-21T14:11:54.422Z,13.48
2019-03-21T14:14:21.471Z,13.44
2019-03-21T14:16:50.878Z,13.47
2019-03-21T14:19:17.586Z,13.43
2019-03-21T14:21:45.607Z,13.48
2019-03-21T14:24:12.935Z,13.54
2019-03-21T14:26:40.241Z,13.53
2019-03-21T14:29:12.518Z,13.41
2019-03-21T14:31:36.327Z,13.38
2019-03-21T14:34:04.342Z,13.41
2019-03-21T14:36:31.407Z,13.41
2019-03-21T14:38:58.442Z,13.33
2019-03-21T14:41:25.751Z,13.30
2019-03-21T14:43:52.803Z,13.29
2019-03-21T14:46:20.169Z,13.23
2019-03-21T14:48:47.508Z,13.27
2019-03-21T14:51:14.794Z,13.22
2019-03-21T14:53:42.921Z,13.13
2019-03-21T14:56:09.971Z,13.12
2019-03-21T14:58:37.339Z,13.14
2019-03-21T15:01:04.455Z,13.24
2019-03-21T15:03:31.863Z,13.22
2019-03-21T15:05:58.905Z,13.21
2019-03-21T15:08:26.252Z,13.23
2019-03-21T15:10:53.282Z,13.15
2019-03-21T15:13:20.359Z,13.13
2019-03-21T15:15:47.379Z,13.11
2019-03-21T15:18:14.430Z,12.99
2019-03-21T15:20:41.466Z,13.02
2019-03-21T15:23:08.523Z,13.00
2019-03-21T15:25:35.983Z,12.97
2019-03-21T15:28:03.116Z,12.97
2019-03-21T15:30:31.372Z,13.06
2019-03-21T15:32:58.496Z,13.02
2019-03-21T15:35:25.823Z,13.04
2019-03-21T15:37:53.187Z,13.03
2019-03-21T15:40:20.291Z,12.99
2019-03-21T15:42:47.703Z,13.00
2019-03-21T15:45:22.194Z,12.93
2019-03-21T15:47:43.565Z,12.95
2019-03-21T15:50:11.676Z,12.89
2019-03-21T15:52:39.047Z,12.87
2019-03-21T15:55:06.103Z,12.83
2019-03-21T15:57:33.476Z,12.81
2019-03-21T16:00:00.522Z,12.82
2019-03-21T16:02:27.566Z,12.75
2019-03-21T16:04:58.623Z,12.72
2019-03-21T16:07:27.939Z,12.67
2019-03-21T16:09:55.187Z,12.65
2019-03-21T16:12:22.261Z,12.63
2019-03-21T16:14:49.454Z,12.68
2019-03-21T16:17:16.508Z,12.73
2019-03-21T16:19:43.554Z,12.71
2019-03-21T16:22:10.622Z,12.66
2019-03-21T16:24:37.683Z,12.60
2019-03-21T16:27:04.727Z,12.54
2019-03-21T16:29:32.138Z,12.51
2019-03-21T16:31:59.200Z,12.50
2019-03-21T16:34:26.543Z,12.45
2019-03-21T16:36:53.595Z,12.33
2019-03-21T16:39:20.659Z,12.20
2019-03-21T16:41:48.011Z,12.07
2019-03-21T16:44:15.074Z,11.96
2019-03-21T16:46:42.121Z,11.87
2019-03-21T16:49:09.183Z,11.73
2019-03-21T16:51:39.563Z,11.58
2019-03-21T16:54:16.481Z,11.49
2019-03-21T16:56:35.364Z,11.46
2019-03-21T16:59:02.759Z,11.40
2019-03-21T17:01:30.141Z,11.31
2019-03-21T17:03:57.587Z,11.24
2019-03-21T17:06:24.658Z,11.15
2019-03-21T17:08:51.720Z,11.09
2019-03-21T17:11:19.022Z,11.06
2019-03-21T17:13:46.100Z,11.00
2019-03-21T17:16:13.160Z,10.95
2019-03-21T17:18:40.211Z,10.92
2019-03-21T17:21:09.493Z,10.86
2019-03-21T17:23:36.337Z,10.72
2019-03-21T17:26:03.666Z,10.66
2019-03-21T17:28:30.735Z,10.58
2019-03-21T17:30:57.786Z,10.50
2019-03-21T17:33:24.835Z,10.47
2019-03-21T17:35:51.906Z,10.39
2019-03-21T17:38:18.966Z,10.33
2019-03-21T17:40:46.359Z,10.26
2019-03-21T17:43:13.411Z,10.24
2019-03-21T17:45:40.805Z,10.18
2019-03-21T17:48:08.238Z,10.08
2019-03-21T17:50:35.574Z,10.02
2019-03-21T17:53:02.930Z,9.96
2019-03-21T17:55:31.305Z,9.93
2019-03-21T17:57:58.353Z,9.93
2019-03-21T18:00:25.715Z,9.93
2019-03-21T18:02:52.765Z,9.90
2019-03-21T18:05:19.823Z,9.86
2019-03-21T18:07:47.934Z,9.84
2019-03-21T18:10:16.385Z,9.77
2019-03-21T18:12:43.717Z,9.66
2019-03-21T18:15:11.175Z,9.57
2019-03-21T18:17:39.291Z,9.48
2019-03-21T18:20:06.701Z,9.43
2019-03-21T18:22:33.747Z,9.40
2019-03-21T18:25:01.107Z,9.40
2019-03-21T18:27:28.154Z,9.43
2019-03-21T18:29:55.214Z,9.43
2019-03-21T18:32:22.558Z,9.40
2019-03-21T18:34:49.928Z,9.35
2019-03-21T18:37:16.974Z,9.31
2019-03-21T18:39:44.034Z,9.32
2019-03-21T18:42:11.337Z,9.35
2019-03-21T18:44:38.401Z,9.39
2019-03-21T18:47:05.444Z,9.33
2019-03-21T18:49:32.484Z,9.34
2019-03-21T18:51:59.602Z,9.36
2019-03-21T18:54:27.021Z,9.34
2019-03-21T18:56:54.118Z,9.29
2019-03-21T18:59:21.172Z,9.26
2019-03-21T19:01:57.949Z,9.19
2019-03-21T19:04:17.662Z,9.14
2019-03-21T19:06:44.766Z,9.17
2019-03-21T19:09:11.842Z,9.21
2019-03-21T19:11:39.238Z,9.25
2019-03-21T19:14:06.281Z,9.22
2019-03-21T19:16:33.344Z,9.20
2019-03-21T19:19:00.688Z,9.09
2019-03-21T19:21:27.995Z,8.98
2019-03-21T19:23:56.297Z,8.86
2019-03-21T19:26:23.357Z,8.74
2019-03-21T19:28:50.425Z,8.70
2019-03-21T19:31:17.750Z,8.62
2019-03-21T19:33:45.146Z,8.68
2019-03-21T19:36:12.163Z,8.74
2019-03-21T19:38:39.213Z,8.79
2019-03-21T19:41:06.553Z,8.85
2019-03-21T19:43:33.612Z,8.88
2019-03-21T19:46:01.738Z,8.84
2019-03-21T19:48:28.773Z,8.88
2019-03-21T19:50:56.178Z,8.88
2019-03-21T19:53:23.226Z,8.90
2019-03-21T19:55:50.283Z,8.83
2019-03-21T19:58:17.326Z,8.71
2019-03-21T20:00:44.680Z,8.63
2019-03-21T20:03:11.732Z,8.58
2019-03-21T20:05:39.082Z,8.55
2019-03-21T20:08:09.286Z,8.50
2019-03-21T20:10:37.578Z,8.43
2019-03-21T20:13:04.628Z,8.41
2019-03-21T20:15:31.861Z,8.42
2019-03-21T20:17:59.158Z,8.49
2019-03-21T20:20:26.695Z,8.63
2019-03-21T20:22:54.256Z,8.73
2019-03-21T20:25:23.659Z,8.82
2019-03-21T20:27:51.130Z,8.72
2019-03-21T20:30:18.246Z,8.52
2019-03-21T20:32:45.631Z,8.27
2019-03-21T20:35:12.683Z,8.05
2019-03-21T20:37:39.773Z,7.66
2019-03-21T20:40:06.885Z,7.29
2019-03-21T20:42:34.249Z,7.06
2019-03-21T20:45:01.305Z,6.92
2019-03-21T20:47:29.854Z,6.79
2019-03-21T20:49:56.897Z,6.65
2019-03-21T20:52:23.958Z,6.49
2019-03-21T20:54:51.004Z,6.34
2019-03-21T20:57:18.374Z,6.11
2019-03-21T20:59:45.424Z,5.97
2019-03-21T21:02:13.547Z,5.97
2019-03-21T21:04:40.591Z,5.99
2019-03-21T21:07:09.104Z,6.01
2019-03-21T21:09:36.152Z,6.01
2019-03-21T21:12:03.510Z,5.99
2019-03-21T21:14:30.866Z,5.96
2019-03-21T21:16:58.217Z,5.93
2019-03-21T21:19:25.292Z,5.92
2019-03-21T21:21:52.328Z,5.93
2019-03-21T21:24:19.665Z,5.92
2019-03-21T21:26:47.025Z,5.94
2019-03-21T21:29:14.067Z,5.97
2019-03-21T21:31:41.130Z,5.97
2019-03-21T21:34:08.186Z,5.94
2019-03-21T21:36:35.243Z,5.86
2019-03-21T21:39:02.590Z,5.75
2019-03-21T21:41:31.119Z,5.66
2019-03-21T21:43:58.527Z,5.65
2019-03-21T21:46:25.589Z,5.65
2019-03-21T21:48:52.637Z,5.70
2019-03-21T21:51:20.062Z,5.74
2019-03-21T21:53:47.418Z,5.77
2019-03-21T21:56:17.817Z,5.81
2019-03-21T21:58:43.226Z,5.90
2019-03-21T22:01:10.449Z,5.94
2019-03-21T22:03:37.672Z,5.97
2019-03-21T22:06:04.733Z,6.02
2019-03-21T22:08:31.794Z,6.05
2019-03-21T22:10:58.855Z,6.09
2019-03-21T22:13:25.930Z,6.11
2019-03-21T22:15:52.979Z,6.15
2019-03-21T22:18:20.047Z,6.16
2019-03-21T22:20:47.090Z,6.13
2019-03-21T22:23:14.450Z,6.17
2019-03-21T22:25:41.497Z,6.24
2019-03-21T22:28:10.158Z,6.29
2019-03-21T22:30:38.900Z,6.29
2019-03-21T22:35:47.218Z,6.33
2019-03-21T22:38:19.723Z,6.26
2019-03-21T22:40:49.026Z,6.23
2019-03-21T22:48:33.261Z,6.07
2019-03-21T22:51:03.689Z,6.10
2019-03-21T22:53:31.913Z,6.05
2019-03-21T22:56:00.069Z,5.99
2019-03-21T22:58:31.994Z,6.00
2019-03-21T23:01:16.474Z,5.96
2019-03-21T23:03:43.694Z,5.91
2019-03-21T23:06:10.982Z,5.73
2019-03-21T23:13:54.923Z,5.23
2019-03-21T23:16:21.817Z,5.08
2019-03-21T23:18:49.158Z,5.02
2019-03-21T23:21:18.628Z,4.96
2019-03-21T23:23:45.682Z,4.90
2019-03-21T23:26:12.721Z,4.88
2019-03-21T23:28:39.769Z,4.94
2019-03-21T23:31:06.871Z,5.05
2019-03-21T23:33:34.545Z,5.12
2019-03-21T23:36:01.585Z,5.13
2019-03-21T23:38:28.900Z,5.19
2019-03-21T23:40:56.666Z,5.18
2019-03-21T23:43:24.791Z,5.14
2019-03-21T23:46:04.001Z,5.09
2019-03-21T23:48:31.297Z,5.02
2019-03-21T23:50:58.329Z,4.96
2019-03-21T23:53:25.381Z,4.92
2019-03-21T23:55:52.416Z,4.85
2019-03-21T23:58:19.827Z,4.76
